Terminal Aerodrome Forecast
Issued by NWS

Home | Current Version | Previous Version | Text Only | Print | Product List | Glossary On
Versions: 1 2 3 4 5 6 7 8 9 10 11 12 13 14 15
000
FTUS46 KPDT 240500
TAFYKM
TAF
KYKM 240520Z 2406/2506 15005KT P6SM VCSH BKN050 OVC070
     FM240900 20006KT P6SM -RA BKN040 OVC060
     FM241200 27005KT P6SM VCSH BKN050 BKN070
     FM241600 25008G15KT P6SM VCSH SCT060 SCT080
     FM242100 25020G29KT P6SM VCSH SCT050=

USA.gov is the U.S. government's official web portal to all federal, state and local government web resources and services.